Time;durP1;ratioP1;P1;durP2;ratioP2;P2;SDS_P1;SDS_P2;PMS_P1;PMS_P2;Temp;Humidity;BMP_temperature;BMP_pressure;BME280_temperature;BME280_humidity;BME280_pressure;Samples;Min_cycle;Max_cycle;Signal;HPM_P1;HPM_P2
2023/10/04 00:01:14;;;;;;;5.68;1.70;;;;;;;21.13;52.74;102434.59;4914263;29;20036;-73
2023/10/04 00:03:39;;;;;;;4.78;1.45;;;;;;;21.13;53.07;102439.91;4915148;29;20028;-74
2023/10/04 00:06:05;;;;;;;6.00;1.88;;;;;;;21.13;53.15;102443.41;4909717;29;20091;-71
2023/10/04 00:08:30;;;;;;;6.90;1.73;;;;;;;21.12;52.85;102439.03;4915523;29;20095;-72
2023/10/04 00:10:55;;;;;;;4.88;1.73;;;;;;;21.12;53.06;102435.53;4914350;29;20035;-70
2023/10/04 00:13:21;;;;;;;4.35;1.40;;;;;;;21.12;52.88;102435.53;4912892;29;20710;-71
2023/10/04 00:15:46;;;;;;;4.80;1.63;;;;;;;21.11;52.75;102441.78;4911754;29;20110;-76
2023/10/04 00:18:11;;;;;;;4.40;1.80;;;;;;;21.11;52.50;102450.63;4916566;29;20046;-72
2023/10/04 00:20:38;;;;;;;6.47;1.80;;;;;;;21.10;52.69;102448.06;4918478;29;20170;-76
2023/10/04 00:23:04;;;;;;;4.78;1.80;;;;;;;21.10;52.67;102448.91;4912927;29;20122;-72
2023/10/04 00:25:30;;;;;;;4.95;1.50;;;;;;;21.10;53.04;102448.06;4916912;29;20031;-71
2023/10/04 00:27:56;;;;;;;4.72;1.58;;;;;;;21.10;52.99;102445.41;4913101;29;20540;-73
2023/10/04 00:30:22;;;;;;;5.78;1.67;;;;;;;21.08;52.89;102445.53;4917042;29;20103;-71
2023/10/04 00:32:48;;;;;;;4.47;1.60;;;;;;;21.08;52.68;102442.88;4910447;29;20071;-74
2023/10/04 00:35:17;;;;;;;4.88;1.50;;;;;;;21.09;52.94;102443.72;4912359;29;20063;-76
2023/10/04 00:37:44;;;;;;;3.55;1.50;;;;;;;21.08;53.04;102444.66;4905975;29;20404;-71
2023/10/04 00:40:15;;;;;;;5.47;1.52;;;;;;;21.08;52.74;102439.34;4906947;29;20122;-71
2023/10/04 00:42:41;;;;;;;5.90;1.50;;;;;;;21.07;52.89;102435.84;4917303;29;20067;-71
2023/10/04 00:45:12;;;;;;;6.07;1.42;;;;;;;21.08;53.09;102439.34;4915088;29;20808;-72
2023/10/04 00:47:41;;;;;;;5.63;1.58;;;;;;;21.06;52.97;102446.56;4912686;29;20044;-75
2023/10/04 00:50:16;;;;;;;4.95;1.77;;;;;;;21.06;53.00;102444.78;4916094;29;20931;-71
2023/10/04 00:52:47;;;;;;;5.10;1.95;;;;;;;21.07;53.01;102458.88;4896997;29;20040;-71
2023/10/04 00:55:16;;;;;;;6.85;1.60;;;;;;;21.07;52.74;102453.56;4916900;29;20066;-74
2023/10/04 00:57:41;;;;;;;4.93;1.50;;;;;;;21.06;52.63;102460.69;4920353;29;20077;-76
2023/10/04 01:00:09;;;;;;;5.53;1.50;;;;;;;21.04;52.99;102462.56;4920657;29;20963;-74
2023/10/04 01:02:53;;;;;;;4.10;1.67;;;;;;;21.06;52.90;102467.78;4917252;29;20036;-71
2023/10/04 01:05:24;;;;;;;5.05;1.92;;;;;;;21.07;52.64;102472.13;4914537;29;20043;-73
2023/10/04 01:08:06;;;;;;;4.40;1.40;;;;;;;21.06;52.76;102471.28;4917512;29;20989;-72
2023/10/04 01:10:34;;;;;;;6.00;2.00;;;;;;;21.06;53.13;102470.41;4915742;29;20039;-72
2023/10/04 01:13:21;;;;;;;4.60;1.45;;;;;;;21.06;52.90;102470.41;4916313;29;20560;-72
2023/10/04 01:16:06;;;;;;;3.88;1.38;;;;;;;21.05;52.64;102466.94;4922807;29;20063;-69
2023/10/04 01:18:49;;;;;;;4.40;1.73;;;;;;;21.06;52.82;102467.78;4913363;29;20067;-71
2023/10/04 01:21:16;;;;;;;3.50;1.27;;;;;;;21.06;52.93;102473.06;4913981;29;20035;-70
2023/10/04 01:23:45;;;;;;;5.47;1.50;;;;;;;21.04;53.04;102469.69;4922687;29;20382;-71
2023/10/04 01:26:25;;;;;;;5.07;1.48;;;;;;;21.06;52.51;102476.59;4907171;29;20046;-76
2023/10/04 01:28:50;;;;;;;4.95;1.50;;;;;;;21.03;52.63;102474.16;4919444;29;20074;-70
2023/10/04 01:31:16;;;;;;;5.55;1.30;;;;;;;21.03;52.73;102484.75;4918233;29;20146;-70
2023/10/04 01:33:41;;;;;;;4.65;1.40;;;;;;;21.03;53.03;102476.81;4912668;29;20048;-69
2023/10/04 01:36:07;;;;;;;4.28;1.35;;;;;;;21.04;52.59;102482.94;4917863;29;20050;-73
2023/10/04 01:38:32;;;;;;;5.60;1.70;;;;;;;21.01;52.80;102476.03;4913175;29;20032;-70
2023/10/04 01:40:58;;;;;;;4.30;1.40;;;;;;;21.01;52.59;102473.38;4916647;29;20273;-73
2023/10/04 01:43:24;;;;;;;4.07;1.38;;;;;;;21.01;52.71;102473.38;4914146;29;20040;-71
2023/10/04 01:45:59;;;;;;;5.15;1.55;;;;;;;21.00;52.72;102480.50;4912474;29;20042;-71
2023/10/04 01:48:30;;;;;;;5.65;1.58;;;;;;;21.00;52.78;102480.50;4913244;29;20645;-71
2023/10/04 01:50:56;;;;;;;5.30;1.55;;;;;;;21.01;52.77;102476.03;4915069;29;20028;-69
2023/10/04 01:53:26;;;;;;;5.57;1.50;;;;;;;21.00;52.71;102477.84;4915115;29;20110;-75
2023/10/04 01:55:53;;;;;;;3.65;1.27;;;;;;;21.00;52.46;102477.84;4913521;29;20075;-70
2023/10/04 01:58:23;;;;;;;3.15;1.20;;;;;;;21.00;52.50;102477.84;4920430;29;20031;-74
2023/10/04 02:01:06;;;;;;;4.55;1.70;;;;;;;21.00;52.99;102475.19;4917765;29;20761;-72
2023/10/04 02:03:31;;;;;;;4.57;1.50;;;;;;;21.00;52.62;102474.34;4912735;29;20614;-70
2023/10/04 02:05:57;;;;;;;3.83;1.48;;;;;;;20.99;52.53;102473.50;4913667;29;20516;-71
2023/10/04 02:08:23;;;;;;;4.82;1.50;;;;;;;20.99;52.33;102476.13;4900292;29;20122;-73
2023/10/04 02:10:50;;;;;;;4.95;1.15;;;;;;;20.97;52.70;102467.44;4915994;29;20068;-72
2023/10/04 02:13:16;;;;;;;4.35;1.40;;;;;;;20.97;52.35;102475.41;4921149;29;20039;-69
2023/10/04 02:15:44;;;;;;;6.57;1.67;;;;;;;20.97;52.33;102470.09;4915514;29;20039;-70
2023/10/04 02:18:28;;;;;;;4.93;1.63;;;;;;;20.98;52.44;102481.53;4908848;29;20039;-78
2023/10/04 02:20:54;;;;;;;4.85;1.63;;;;;;;20.98;52.67;102477.09;4904843;29;20040;-73
2023/10/04 02:23:19;;;;;;;4.43;1.30;;;;;;;20.97;52.43;102477.22;4904673;29;20043;-75
2023/10/04 02:25:46;;;;;;;5.72;1.70;;;;;;;20.96;52.55;102475.50;4904824;29;20068;-71
2023/10/04 02:28:17;;;;;;;3.95;1.40;;;;;;;20.96;52.44;102468.41;4918369;29;20502;-70
2023/10/04 02:30:57;;;;;;;3.78;1.25;;;;;;;20.97;52.58;102469.25;4909302;29;21235;-77
2023/10/04 02:33:27;;;;;;;5.18;1.50;;;;;;;20.96;52.44;102465.75;4909857;29;20036;-74
2023/10/04 02:35:53;;;;;;;3.90;1.25;;;;;;;20.94;52.63;102467.66;4915105;29;20036;-71
2023/10/04 02:38:26;;;;;;;5.10;1.60;;;;;;;20.95;52.71;102464.06;4914290;29;20106;-71
2023/10/04 02:41:10;;;;;;;4.03;1.65;;;;;;;20.95;52.84;102476.44;4913787;29;20147;-70
2023/10/04 02:43:37;;;;;;;5.65;1.70;;;;;;;20.95;52.51;102477.31;4916653;29;20035;-72
2023/10/04 02:46:03;;;;;;;4.65;1.50;;;;;;;20.95;52.52;102471.16;4892908;29;20591;-75
2023/10/04 02:48:31;;;;;;;3.40;1.20;;;;;;;20.93;52.63;102475.72;4915694;29;20063;-75
2023/10/04 02:51:14;;;;;;;5.40;1.25;;;;;;;20.94;52.60;102480.06;4914839;29;20043;-76
2023/10/04 02:53:41;;;;;;;4.22;1.40;;;;;;;20.93;52.61;102481.84;4910312;29;20032;-70
2023/10/04 02:56:24;;;;;;;5.28;1.52;;;;;;;20.94;52.46;102486.22;4913696;29;20067;-75
2023/10/04 02:58:50;;;;;;;3.80;1.30;;;;;;;20.93;52.36;102487.16;4912452;29;20131;-72
2023/10/04 03:01:26;;;;;;;4.38;1.30;;;;;;;20.93;52.49;102492.44;4914614;29;20036;-75
2023/10/04 03:04:11;;;;;;;5.43;1.35;;;;;;;20.94;52.57;102490.66;4910389;29;20107;-71
2023/10/04 03:06:37;;;;;;;5.57;1.48;;;;;;;20.94;52.66;102498.63;4913105;29;20067;-78
2023/10/04 03:09:05;;;;;;;3.47;1.40;;;;;;;20.91;52.47;102486.41;4916890;29;20035;-71
2023/10/04 03:11:47;;;;;;;4.75;1.40;;;;;;;20.93;52.29;102495.09;4912229;29;20035;-71
2023/10/04 03:14:13;;;;;;;5.32;1.83;;;;;;;20.92;52.41;102489.91;4915379;29;20458;-74
2023/10/04 03:16:42;;;;;;;4.00;1.35;;;;;;;20.92;52.72;102504.03;4918588;29;20044;-71
2023/10/04 03:19:26;;;;;;;4.95;1.50;;;;;;;20.93;52.49;102515.47;4916483;29;20043;-74
2023/10/04 03:21:52;;;;;;;4.90;1.67;;;;;;;20.91;52.23;102512.91;4912777;29;20040;-75
2023/10/04 03:24:18;;;;;;;5.60;1.48;;;;;;;20.92;52.17;102505.81;4921934;29;20276;-72
2023/10/04 03:26:44;;;;;;;6.60;1.52;;;;;;;20.91;52.04;102506.78;4913711;29;20035;-76
2023/10/04 03:29:11;;;;;;;5.95;1.50;;;;;;;20.90;52.63;102500.59;4917242;29;20036;-72
2023/10/04 03:31:38;;;;;;;4.03;1.17;;;;;;;20.89;52.48;102509.53;4905916;29;20095;-76
2023/10/04 03:34:04;;;;;;;6.82;1.50;;;;;;;20.89;52.46;102504.22;4913102;29;20040;-75
2023/10/04 03:36:29;;;;;;;6.47;1.70;;;;;;;20.90;52.35;102499.75;4904798;29;20549;-71
2023/10/04 03:38:54;;;;;;;4.22;1.40;;;;;;;20.89;52.13;102495.44;4909643;29;20046;-75
2023/10/04 03:41:20;;;;;;;5.35;1.60;;;;;;;20.89;52.42;102503.38;4915660;29;20039;-71
2023/10/04 03:43:46;;;;;;;4.25;1.27;;;;;;;20.89;52.10;102506.03;4911557;29;20032;-72
2023/10/04 03:46:18;;;;;;;4.65;1.73;;;;;;;20.88;52.28;102501.69;4908214;29;20036;-70
2023/10/04 03:48:48;;;;;;;5.32;1.55;;;;;;;20.87;52.23;102505.28;4918589;29;20032;-70
2023/10/04 03:51:15;;;;;;;5.18;1.50;;;;;;;20.88;52.16;102506.97;4912817;29;20643;-76
2023/10/04 03:53:43;;;;;;;5.78;1.58;;;;;;;20.86;52.35;102498.28;4911840;29;20047;-70
2023/10/04 03:56:10;;;;;;;4.22;1.27;;;;;;;20.86;52.03;102495.66;4917830;29;20187;-74
2023/10/04 03:58:38;;;;;;;5.47;1.67;;;;;;;20.88;52.17;102493.72;4907867;29;20414;-73
2023/10/04 04:01:03;;;;;;;5.57;1.63;;;;;;;20.87;52.15;102486.72;4910630;29;20039;-71
2023/10/04 04:03:32;;;;;;;6.22;1.88;;;;;;;20.87;51.99;102486.72;4921863;29;20031;-76
2023/10/04 04:05:57;;;;;;;4.32;1.48;;;;;;;20.86;52.23;102491.19;4911621;29;20120;-70
2023/10/04 04:08:23;;;;;;;4.85;1.42;;;;;;;20.85;52.24;102484.16;4904454;29;20053;-72
2023/10/04 04:10:50;;;;;;;5.88;1.73;;;;;;;20.84;51.87;102488.63;4918424;29;20039;-71
2023/10/04 04:13:15;;;;;;;5.65;2.15;;;;;;;20.85;52.17;102494.78;4919127;29;20079;-74
2023/10/04 04:15:40;;;;;;;6.07;1.40;;;;;;;20.84;51.92;102488.63;4920322;29;20066;-75
2023/10/04 04:18:06;;;;;;;5.78;1.40;;;;;;;20.84;52.24;102493.09;4916872;29;20040;-70
2023/10/04 04:20:35;;;;;;;5.32;1.65;;;;;;;20.84;52.10;102485.16;4910529;29;20028;-70
2023/10/04 04:23:19;;;;;;;7.65;1.70;;;;;;;20.84;51.77;102487.78;4912789;29;20493;-70
2023/10/04 04:25:45;;;;;;;4.13;1.30;;;;;;;20.83;51.74;102481.63;4908092;29;20039;-71
2023/10/04 04:28:17;;;;;;;4.60;1.48;;;;;;;20.83;51.83;102476.31;4913861;29;20042;-74
2023/10/04 04:30:43;;;;;;;5.45;1.90;;;;;;;20.83;52.06;102473.69;4911316;29;20058;-70
2023/10/04 04:33:10;;;;;;;6.18;1.70;;;;;;;20.82;52.12;102474.66;4918028;29;20027;-71
2023/10/04 04:38:17;;;;;;;5.28;1.42;;;;;;;20.82;52.10;102476.44;4915796;29;20060;-71
2023/10/04 04:40:44;;;;;;;4.60;1.60;;;;;;;20.82;52.14;102481.72;4912276;29;20047;-71
2023/10/04 04:45:56;;;;;;;5.47;1.50;;;;;;;20.80;51.77;102492.44;4909754;29;20048;-71
2023/10/04 04:48:23;;;;;;;5.82;1.73;;;;;;;20.82;51.76;102477.31;4908244;29;20835;-70
2023/10/04 04:50:55;;;;;;;6.70;1.63;;;;;;;20.80;51.91;102473.88;4913873;29;20114;-72
2023/10/04 04:53:22;;;;;;;4.22;1.45;;;;;;;20.79;51.80;102474.84;4907867;29;20091;-70
2023/10/04 04:55:51;;;;;;;5.38;1.40;;;;;;;20.79;51.86;102485.44;4914770;29;20540;-74
2023/10/04 04:58:18;;;;;;;4.88;1.38;;;;;;;20.81;51.92;102488.00;4911676;29;20047;-73
2023/10/04 05:00:47;;;;;;;4.85;1.40;;;;;;;20.79;51.68;102477.50;4911627;29;20397;-71
2023/10/04 05:03:13;;;;;;;5.38;1.70;;;;;;;20.79;51.84;102477.50;4915684;29;20028;-75
2023/10/04 05:05:40;;;;;;;5.30;1.52;;;;;;;20.79;52.00;102485.44;4912935;29;20039;-71
2023/10/04 05:08:05;;;;;;;5.32;1.80;;;;;;;20.80;51.67;102486.28;4920192;29;20044;-76
2023/10/04 05:10:38;;;;;;;5.40;1.58;;;;;;;20.79;51.95;102497.81;4911904;29;20055;-72
2023/10/04 05:13:05;;;;;;;5.45;1.50;;;;;;;20.78;51.74;102504.94;4912003;29;20099;-72
2023/10/04 05:15:33;;;;;;;5.93;1.75;;;;;;;20.79;51.53;102524.31;4916136;29;20050;-73
2023/10/04 05:18:00;;;;;;;5.43;1.50;;;;;;;20.78;51.71;102530.59;4909724;29;20071;-75
2023/10/04 05:20:30;;;;;;;4.93;1.83;;;;;;;20.78;51.78;102534.09;4919080;29;20040;-78
2023/10/04 05:22:56;;;;;;;6.32;1.58;;;;;;;20.78;51.61;102535.91;4909131;29;20527;-75
2023/10/04 05:25:22;;;;;;;4.43;1.50;;;;;;;20.77;51.62;102529.72;4906057;29;20043;-72
2023/10/04 05:27:50;;;;;;;4.60;1.65;;;;;;;20.76;51.66;102537.78;4911336;29;20686;-78
2023/10/04 05:30:17;;;;;;;4.40;1.50;;;;;;;20.78;51.58;102546.50;4906638;29;20060;-74
2023/10/04 05:32:44;;;;;;;4.80;1.23;;;;;;;20.76;51.64;102532.47;4911247;29;20069;-71
2023/10/04 05:35:14;;;;;;;3.65;1.23;;;;;;;20.76;51.53;102524.53;4911277;29;20030;-73
2023/10/04 05:37:55;;;;;;;4.20;1.27;;;;;;;20.76;51.75;102532.47;4914140;29;20066;-74
2023/10/04 05:40:27;;;;;;;4.57;1.80;;;;;;;20.77;51.53;102536.84;4915723;29;20473;-71
2023/10/04 05:42:53;;;;;;;4.47;1.40;;;;;;;20.76;51.59;102543.06;4913116;29;20075;-77
2023/10/04 05:45:20;;;;;;;5.70;1.40;;;;;;;20.75;51.69;102538.75;4910808;29;20032;-75
2023/10/04 05:47:46;;;;;;;5.65;1.60;;;;;;;20.75;51.27;102546.69;4913676;29;20036;-76
2023/10/04 05:50:13;;;;;;;5.03;1.65;;;;;;;20.73;51.49;102543.28;4914365;29;20047;-72
2023/10/04 05:52:39;;;;;;;5.47;1.50;;;;;;;20.73;51.56;102549.44;4918484;29;20031;-76
2023/10/04 05:55:08;;;;;;;4.55;1.40;;;;;;;20.74;51.28;102552.94;4913065;29;20067;-74
2023/10/04 05:57:37;;;;;;;4.93;1.50;;;;;;;20.73;51.58;102551.22;4914358;29;20147;-74
2023/10/04 06:02:55;;;;;;;5.78;1.80;;;;;;;20.71;51.37;102558.44;4909541;29;20102;-72
2023/10/04 06:05:25;;;;;;;4.47;1.30;;;;;;;20.68;51.71;102563.94;4909272;29;20043;-71
2023/10/04 06:07:51;;;;;;;4.43;1.60;;;;;;;20.64;51.95;102564.13;4910172;29;20036;-71
2023/10/04 06:10:18;;;;;;;5.55;1.80;;;;;;;20.61;51.97;102563.44;4916690;29;20031;-72
2023/10/04 06:12:46;;;;;;;4.88;1.42;;;;;;;20.60;52.38;102561.75;4917061;29;20032;-71
2023/10/04 06:15:16;;;;;;;5.57;1.67;;;;;;;20.58;52.68;102564.47;4905675;29;20032;-69
2023/10/04 06:17:43;;;;;;;4.28;1.27;;;;;;;20.59;52.36;102568.84;4912727;29;20072;-71
2023/10/04 06:20:23;;;;;;;5.38;1.75;;;;;;;20.56;52.48;102566.38;4914339;29;20036;-72
2023/10/04 06:22:52;;;;;;;7.25;1.75;;;;;;;20.57;52.61;102565.47;4917466;29;20059;-70
2023/10/04 06:25:19;;;;;;;5.28;1.60;;;;;;;20.57;52.61;102575.19;4911315;29;20040;-75
2023/10/04 06:27:44;;;;;;;5.13;1.50;;;;;;;20.57;52.44;102572.53;4919364;29;20038;-73
2023/10/04 06:30:12;;;;;;;4.10;1.40;;;;;;;20.56;52.91;102576.97;4915622;29;20064;-71
2023/10/04 06:32:38;;;;;;;5.15;1.42;;;;;;;20.58;52.92;102587.47;4916826;29;20035;-72
2023/10/04 06:35:06;;;;;;;4.90;1.70;;;;;;;20.57;53.21;102581.34;4909766;29;20609;-75
2023/10/04 06:37:31;;;;;;;3.17;1.27;;;;;;;20.59;53.01;102584.75;4906017;29;20036;-72
2023/10/04 06:39:56;;;;;;;5.25;2.05;;;;;;;20.58;52.63;102588.31;4916810;29;20396;-72
2023/10/04 06:42:21;;;;;;;6.82;1.63;;;;;;;20.59;52.81;102581.25;4901775;29;20062;-71
2023/10/04 06:44:49;;;;;;;4.03;1.47;;;;;;;20.60;52.75;102588.22;4914649;29;20147;-74
2023/10/04 06:47:15;;;;;;;6.75;1.60;;;;;;;20.60;52.90;102580.28;4910975;29;20279;-73
2023/10/04 06:49:40;;;;;;;5.82;1.65;;;;;;;20.59;53.16;102583.91;4904062;29;20090;-72
2023/10/04 06:52:07;;;;;;;6.35;1.80;;;;;;;20.59;53.14;102602.44;4907264;29;20036;-73
2023/10/04 06:54:33;;;;;;;6.13;2.25;;;;;;;20.58;52.83;102604.22;4907457;29;20489;-72
2023/10/04 06:56:59;;;;;;;5.63;1.70;;;;;;;20.60;53.09;102607.63;4901994;29;20043;-79
2023/10/04 06:59:24;;;;;;;5.45;1.80;;;;;;;20.59;53.30;102605.94;4904896;29;20038;-72
2023/10/04 07:01:50;;;;;;;5.60;1.90;;;;;;;20.60;53.31;102605.00;4904899;29;20036;-70
2023/10/04 07:04:17;;;;;;;4.22;1.50;;;;;;;20.60;53.28;102596.16;4918799;29;20090;-74
2023/10/04 07:06:42;;;;;;;4.38;1.42;;;;;;;20.61;53.24;102603.19;4916598;29;20043;-73
2023/10/04 07:09:09;;;;;;;7.20;1.58;;;;;;;20.60;53.22;102598.81;4910735;29;20383;-72
2023/10/04 07:11:34;;;;;;;7.95;1.70;;;;;;;20.58;53.43;102595.44;4909271;29;20135;-72
2023/10/04 07:13:59;;;;;;;10.70;1.57;;;;;;;20.59;53.50;102600.63;4914085;29;20032;-75
2023/10/04 07:16:24;;;;;;;6.00;1.50;;;;;;;20.61;53.14;102597.88;4916533;29;20270;-72
2023/10/04 07:18:50;;;;;;;7.60;1.70;;;;;;;20.59;53.52;102600.63;4912246;29;20793;-73
2023/10/04 07:21:15;;;;;;;5.50;1.50;;;;;;;20.62;53.19;102603.09;4912633;29;20068;-69
2023/10/04 07:23:40;;;;;;;5.38;1.52;;;;;;;20.63;53.66;102594.19;4912511;29;20762;-73
2023/10/04 07:26:09;;;;;;;4.97;1.60;;;;;;;20.61;53.50;102598.72;4908372;29;20035;-71
2023/10/04 07:28:37;;;;;;;5.45;1.80;;;;;;;20.55;53.48;102599.13;4911849;29;20040;-66
2023/10/04 07:31:03;;;;;;;6.13;1.80;;;;;;;20.47;53.90;102598.75;4913093;29;20044;-66
2023/10/04 07:33:28;;;;;;;16.10;2.67;;;;;;;20.38;54.01;102599.38;4905554;29;20058;-72
2023/10/04 07:35:55;;;;;;;6.03;1.70;;;;;;;20.34;54.03;102600.50;4911554;29;20038;-73
2023/10/04 07:38:20;;;;;;;4.43;1.55;;;;;;;20.30;54.07;102610.44;4910583;29;20115;-75
2023/10/04 07:40:46;;;;;;;5.50;1.70;;;;;;;20.27;54.47;102606.19;4916881;29;20086;-73
2023/10/04 07:43:11;;;;;;;6.45;1.52;;;;;;;20.25;54.79;102607.22;4902812;29;20039;-73
2023/10/04 07:45:37;;;;;;;6.65;1.65;;;;;;;20.25;54.46;102616.03;4904720;29;20043;-74
2023/10/04 07:48:04;;;;;;;5.18;1.67;;;;;;;20.28;54.36;102617.59;4919255;29;20094;-68
2023/10/04 07:50:31;;;;;;;6.05;1.48;;;;;;;20.30;54.53;102618.38;4914659;29;20032;-73
2023/10/04 07:53:00;;;;;;;8.93;1.98;;;;;;;20.30;54.33;102624.53;4910807;29;20052;-72
2023/10/04 07:55:26;;;;;;;5.15;1.65;;;;;;;20.29;54.31;102619.31;4887479;29;20048;-73
2023/10/04 07:57:54;;;;;;;9.07;2.03;;;;;;;20.29;54.48;102624.63;4902401;29;20035;-73
2023/10/04 08:00:21;;;;;;;5.50;1.67;;;;;;;20.30;54.64;102631.63;4903297;29;20055;-72
2023/10/04 08:02:51;;;;;;;7.13;1.95;;;;;;;20.30;54.51;102635.09;4899986;29;20079;-70
2023/10/04 08:05:38;;;;;;;5.75;1.67;;;;;;;20.30;54.74;102634.28;4899533;29;20036;-74
2023/10/04 08:08:05;;;;;;;6.07;1.73;;;;;;;20.32;54.58;102642.13;4914532;29;20152;-75
2023/10/04 08:10:32;;;;;;;7.50;1.70;;;;;;;20.30;54.59;102629.81;4915077;29;20063;-75
2023/10/04 08:13:01;;;;;;;5.82;1.80;;;;;;;20.30;54.20;102635.09;4903444;29;20042;-74
2023/10/04 08:15:28;;;;;;;7.65;1.90;;;;;;;20.31;54.63;102638.59;4914692;29;20039;-74
2023/10/04 08:17:55;;;;;;;6.50;1.70;;;;;;;20.33;54.49;102638.50;4915592;29;20040;-73
2023/10/04 08:20:22;;;;;;;7.13;1.50;;;;;;;20.36;54.33;102640.97;4915167;29;20044;-73
2023/10/04 08:22:48;;;;;;;7.03;1.52;;;;;;;20.38;53.97;102642.56;4917580;29;20116;-73
2023/10/04 08:25:18;;;;;;;6.18;2.00;;;;;;;20.40;54.61;102648.63;4919643;29;20200;-76
2023/10/04 08:27:44;;;;;;;10.75;2.42;;;;;;;20.41;54.56;102652.97;4915607;29;20103;-74
2023/10/04 08:30:12;;;;;;;6.00;1.80;;;;;;;20.40;54.46;102648.63;4907032;29;20056;-77
2023/10/04 08:32:43;;;;;;;7.25;1.73;;;;;;;20.38;54.75;102655.81;4913363;29;20414;-74
2023/10/04 08:35:21;;;;;;;6.90;2.00;;;;;;;20.36;54.46;102644.47;4915126;29;20031;-72
2023/10/04 08:37:52;;;;;;;6.60;1.73;;;;;;;20.37;54.40;102651.47;4912815;29;20768;-72
2023/10/04 08:40:20;;;;;;;6.63;1.75;;;;;;;20.39;54.67;102648.72;4909368;29;20044;-74
2023/10/04 08:42:48;;;;;;;6.40;1.63;;;;;;;20.37;54.39;102653.25;4912074;29;20071;-76
2023/10/04 08:45:16;;;;;;;5.93;1.63;;;;;;;20.39;54.41;102649.56;4921822;29;20056;-73
2023/10/04 08:47:47;;;;;;;6.07;1.80;;;;;;;20.40;54.53;102651.25;4901964;29;20474;-72
2023/10/04 08:50:14;;;;;;;5.60;1.85;;;;;;;20.40;54.36;102650.44;4905271;29;20044;-72
2023/10/04 08:52:42;;;;;;;7.72;1.77;;;;;;;20.40;54.61;102661.03;4912542;29;20036;-73
2023/10/04 08:55:16;;;;;;;8.27;2.17;;;;;;;20.39;54.48;102651.38;4902279;29;20936;-71
2023/10/04 08:57:43;;;;;;;5.05;1.52;;;;;;;20.40;54.55;102655.72;4922905;29;20031;-76
2023/10/04 09:00:15;;;;;;;9.15;2.33;;;;;;;20.40;54.53;102666.31;4900070;29;20396;-77
2023/10/04 09:02:44;;;;;;;7.93;1.95;;;;;;;20.39;54.46;102654.84;4918262;29;20564;-77
2023/10/04 09:05:13;;;;;;;6.97;2.15;;;;;;;20.40;54.38;102661.84;4915097;29;20035;-76
2023/10/04 09:07:39;;;;;;;4.28;1.65;;;;;;;20.40;54.53;102651.25;4899145;29;20051;-74
2023/10/04 09:10:06;;;;;;;6.68;1.92;;;;;;;20.43;54.63;102655.53;4912538;29;20066;-72
2023/10/04 09:12:31;;;;;;;5.18;1.90;;;;;;;20.44;54.33;102652.78;4911263;29;20051;-75
2023/10/04 09:14:57;;;;;;;5.25;1.70;;;;;;;20.45;54.29;102653.63;4917492;29;20032;-74
2023/10/04 09:17:25;;;;;;;6.20;2.00;;;;;;;20.44;54.60;102655.44;4915875;29;20038;-76
2023/10/04 09:19:50;;;;;;;4.85;1.65;;;;;;;20.45;54.34;102658.94;4916909;29;20036;-76
2023/10/04 09:22:18;;;;;;;5.15;1.80;;;;;;;20.47;54.33;102654.38;4915020;29;20098;-75
2023/10/04 09:24:55;;;;;;;7.60;1.83;;;;;;;20.46;54.42;102653.53;4916016;29;20040;-73
2023/10/04 09:27:21;;;;;;;6.43;1.90;;;;;;;20.48;54.59;102648.13;4897910;29;20048;-75
2023/10/04 09:29:48;;;;;;;7.53;1.52;;;;;;;20.48;54.75;102646.34;4916970;29;20055;-72
2023/10/04 09:32:14;;;;;;;7.25;1.95;;;;;;;20.48;54.42;102634.91;4915218;29;20146;-71
2023/10/04 09:34:40;;;;;;;8.63;2.15;;;;;;;20.48;54.61;102642.84;4915844;29;20466;-74
2023/10/04 09:37:23;;;;;;;6.03;1.92;;;;;;;20.49;54.87;102655.16;4917414;29;20036;-74
2023/10/04 09:39:48;;;;;;;7.95;2.00;;;;;;;20.48;54.70;102648.13;4915430;29;20036;-73
2023/10/04 09:42:14;;;;;;;7.68;2.25;;;;;;;20.48;54.53;102654.28;4916126;29;20031;-72
2023/10/04 09:44:40;;;;;;;6.47;1.83;;;;;;;20.48;54.62;102659.56;4912373;29;20047;-74
2023/10/04 09:47:07;;;;;;;6.05;1.73;;;;;;;20.50;54.63;102659.47;4916252;29;20039;-74
2023/10/04 09:49:51;;;;;;;6.38;1.98;;;;;;;20.50;54.63;102662.13;4915116;29;20043;-75
2023/10/04 09:52:16;;;;;;;6.60;1.90;;;;;;;20.51;54.49;102663.84;4916587;29;20042;-72
2023/10/04 09:54:43;;;;;;;5.07;1.88;;;;;;;20.50;54.50;102654.19;4913376;29;20039;-81
2023/10/04 09:57:12;;;;;;;8.68;2.50;;;;;;;20.51;54.78;102653.25;4915258;29;20036;-72
2023/10/04 09:59:38;;;;;;;7.13;2.17;;;;;;;20.52;54.58;102644.38;4914933;29;20048;-72
2023/10/04 10:02:09;;;;;;;6.68;2.00;;;;;;;20.55;54.43;102652.09;4921435;29;20039;-70
2023/10/04 10:04:43;;;;;;;5.90;1.98;;;;;;;20.56;54.73;102660.91;4893397;29;20044;-77
2023/10/04 10:07:16;;;;;;;;;;;;;;;20.57;54.77;102657.28;4910859;29;20032;-73
2023/10/04 10:10:16;;;;;;;5.80;2.63;;;;;;;20.54;54.70;102661.00;4913713;29;19966;-71
2023/10/04 10:12:48;;;;;;;5.20;1.90;;;;;;;20.55;54.69;102670.63;4915015;29;20059;-74
2023/10/04 10:15:14;;;;;;;6.70;2.00;;;;;;;20.55;54.85;102667.97;4914571;29;20035;-72
2023/10/04 10:17:42;;;;;;;5.28;1.58;;;;;;;20.56;54.77;102669.69;4911895;29;20043;-76
2023/10/04 10:20:09;;;;;;;6.68;1.90;;;;;;;20.55;54.81;102660.03;4903748;29;20088;-76
2023/10/04 10:22:54;;;;;;;7.82;1.98;;;;;;;20.55;55.13;102661.84;4916442;29;20036;-72
2023/10/04 10:25:20;;;;;;;5.80;1.75;;;;;;;20.56;54.95;102659.09;4912340;29;20044;-72
2023/10/04 10:27:46;;;;;;;8.20;2.17;;;;;;;20.60;54.84;102663.28;4917747;29;20097;-74
2023/10/04 10:30:16;;;;;;;7.65;1.90;;;;;;;20.65;55.08;102666.50;4911856;29;20056;-71
2023/10/04 10:32:54;;;;;;;11.73;2.30;;;;;;;20.68;54.60;102664.59;4899855;29;20032;-75
2023/10/04 10:35:58;;;;;;;6.47;2.00;;;;;;;20.70;54.59;102660.06;4912946;29;20068;-70
2023/10/04 10:38:44;;;;;;;8.43;2.10;;;;;;;20.71;54.74;102659.09;4913937;29;20080;-74
2023/10/04 10:41:28;;;;;;;10.52;2.17;;;;;;;20.70;54.59;102652.97;4910978;29;20044;-71
2023/10/04 10:44:24;;;;;;;7.95;2.00;;;;;;;20.71;55.10;102654.69;4915708;29;20039;-76
2023/10/04 10:46:55;;;;;;;10.25;3.15;;;;;;;20.73;54.61;102650.13;4915696;29;20039;-77
2023/10/04 10:49:56;;;;;;;11.20;4.68;;;;;;;20.74;54.73;102648.31;4904501;29;20066;-80
2023/10/04 10:52:23;;;;;;;17.85;9.77;;;;;;;20.78;54.60;102652.47;4913225;29;20035;-73
2023/10/04 10:54:49;;;;;;;20.25;13.13;;;;;;;20.79;54.33;102646.22;4911904;29;20039;-75
2023/10/04 10:57:17;;;;;;;20.73;14.25;;;;;;;20.78;54.39;102642.72;4893595;29;20031;-70
2023/10/04 10:59:43;;;;;;;24.33;14.27;;;;;;;20.80;54.50;102647.91;4903245;29;20031;-70
2023/10/04 11:02:09;;;;;;;22.67;13.40;;;;;;;20.79;54.38;102646.22;4910716;29;20036;-75
2023/10/04 11:04:34;;;;;;;22.73;14.25;;;;;;;20.79;54.93;102646.22;4914565;29;20321;-72
2023/10/04 11:07:00;;;;;;;21.08;13.50;;;;;;;20.78;54.82;102636.56;4919142;29;20032;-75
2023/10/04 11:09:26;;;;;;;17.08;12.32;;;;;;;20.77;54.32;102637.53;4921633;29;20505;-74
2023/10/04 11:11:53;;;;;;;20.73;12.57;;;;;;;20.75;54.77;102629.66;4905926;29;20047;-75
2023/10/04 11:14:20;;;;;;;18.30;11.88;;;;;;;20.76;54.85;102626.06;4917106;29;20038;-73
2023/10/04 11:16:45;;;;;;;18.70;11.68;;;;;;;20.77;54.65;102626.91;4909794;29;20043;-74
2023/10/04 11:19:12;;;;;;;18.50;11.30;;;;;;;20.79;54.70;102615.28;4917622;29;20039;-79
2023/10/04 11:21:39;;;;;;;20.83;11.25;;;;;;;20.80;54.56;102616.13;4914610;29;20070;-71
2023/10/04 11:24:04;;;;;;;19.70;10.18;;;;;;;20.82;54.82;102612.44;4901750;29;20039;-77
2023/10/04 11:26:30;;;;;;;14.85;9.63;;;;;;;20.81;54.99;102615.19;4916734;29;20064;-74
2023/10/04 11:28:57;;;;;;;15.85;9.32;;;;;;;20.78;55.00;102618.03;4917358;29;20048;-74
2023/10/04 11:31:23;;;;;;;16.05;8.75;;;;;;;20.77;55.00;102608.38;4909204;29;21036;-73
2023/10/04 11:33:55;;;;;;;13.85;8.38;;;;;;;20.75;54.90;102618.22;4917374;29;20087;-73
2023/10/04 11:36:24;;;;;;;13.02;8.68;;;;;;;20.78;54.75;102612.72;4908235;29;20036;-73
2023/10/04 11:38:51;;;;;;;15.13;9.02;;;;;;;20.79;54.94;102599.38;4910498;29;20032;-71
2023/10/04 11:41:17;;;;;;;19.67;8.48;;;;;;;20.79;54.99;102609.97;4906442;29;20086;-75